createdAt,value
2024-04-10T00:00:16.656Z,1026.163414
2024-04-10T00:05:17.083Z,1026.103508
2024-04-10T00:10:17.122Z,1026.103782
2024-04-10T00:15:17.272Z,1026.183927
2024-04-10T00:20:16.209Z,1026.204814
2024-04-10T00:25:17.211Z,1026.203418
2024-04-10T00:30:16.482Z,1026.183839
2024-04-10T00:35:17.869Z,1026.184148
2024-04-10T00:40:16.320Z,1026.185022
2024-04-10T00:45:16.668Z,1026.185560
2024-04-10T00:50:16.414Z,1026.205792
2024-04-10T00:55:16.602Z,1026.165750
2024-04-10T01:00:16.054Z,1026.165855
2024-04-10T01:05:16.590Z,1026.186087
2024-04-10T01:10:16.799Z,1026.185750
2024-04-10T01:15:16.559Z,1026.125692
2024-04-10T01:20:16.276Z,1026.125706
2024-04-10T01:25:16.604Z,1026.165710
2024-04-10T01:30:16.832Z,1026.145512
2024-04-10T01:35:16.708Z,1026.085568
2024-04-10T01:40:16.532Z,1026.126239
2024-04-10T01:45:17.133Z,1026.166088
2024-04-10T01:50:17.024Z,1026.165958
2024-04-10T01:55:16.583Z,1026.166135
2024-04-10T02:00:16.887Z,1026.186492
2024-04-10T02:05:16.673Z,1026.186994
2024-04-10T02:10:16.331Z,1026.187325
2024-04-10T02:15:16.395Z,1026.186683
2024-04-10T02:20:16.725Z,1026.246714
2024-04-10T02:25:16.620Z,1026.286434
2024-04-10T02:30:17.340Z,1026.346113
2024-04-10T02:35:18.915Z,1026.345981
2024-04-10T02:40:17.278Z,1026.305460
2024-04-10T02:45:16.974Z,1026.365258
2024-04-10T02:50:17.347Z,1026.385303
2024-04-10T02:55:17.029Z,1026.405706
2024-04-10T03:00:17.315Z,1026.425079
2024-04-10T03:05:16.845Z,1026.485528
2024-04-10T03:10:17.296Z,1026.486001
2024-04-10T03:15:16.347Z,1026.647756
2024-04-10T03:20:16.737Z,1026.748187
2024-04-10T03:25:16.747Z,1026.808519
2024-04-10T03:30:16.945Z,1026.928002
2024-04-10T03:35:16.380Z,1027.008956
2024-04-10T03:40:16.458Z,1027.109000
2024-04-10T03:45:17.034Z,1027.149104
2024-04-10T03:50:19.167Z,1027.248611
2024-04-10T03:55:17.325Z,1027.289038
2024-04-10T04:00:17.017Z,1027.309315
2024-04-10T04:05:16.733Z,1027.289292
2024-04-10T04:10:16.564Z,1027.289200
2024-04-10T04:15:17.428Z,1027.349025
2024-04-10T04:20:16.438Z,1027.388938
2024-04-10T04:25:16.734Z,1027.449173
2024-04-10T04:30:16.282Z,1027.529069
2024-04-10T04:35:21.311Z,1027.629660
2024-04-10T04:40:16.832Z,1027.549225
2024-04-10T04:45:16.841Z,1027.589348
2024-04-10T04:50:16.697Z,1027.628997
2024-04-10T04:55:16.771Z,1027.669251
2024-04-10T05:00:16.753Z,1027.730419
2024-04-10T05:05:16.425Z,1027.690882
2024-04-10T05:10:16.605Z,1027.731445
2024-04-10T05:15:17.113Z,1027.731830
2024-04-10T05:20:18.531Z,1027.752045
2024-04-10T05:25:16.503Z,1027.732270
2024-04-10T05:30:17.441Z,1027.772246
2024-04-10T05:35:16.799Z,1027.732522
2024-04-10T05:40:16.517Z,1027.772545
2024-04-10T05:45:17.220Z,1027.732363
2024-04-10T05:50:16.694Z,1027.872432
2024-04-10T05:55:17.376Z,1027.992730
2024-04-10T06:00:16.190Z,1027.992658
2024-04-10T06:05:16.155Z,1027.992849
2024-04-10T06:10:16.318Z,1028.013159
2024-04-10T06:15:16.661Z,1027.933553
2024-04-10T06:20:17.275Z,1027.993228
2024-04-10T06:25:17.320Z,1028.073678
2024-04-10T06:30:16.918Z,1028.092693
2024-04-10T06:35:16.614Z,1028.192099
2024-04-10T06:40:16.696Z,1028.192082
2024-04-10T06:45:17.595Z,1028.212532
2024-04-10T06:50:17.231Z,1028.268372
2024-04-10T06:55:17.354Z,1028.214485
2024-04-10T07:00:16.418Z,1028.215483
2024-04-10T07:05:16.672Z,1028.296290
2024-04-10T07:10:16.406Z,1028.276114
2024-04-10T07:15:17.175Z,1028.195638
2024-04-10T07:20:17.252Z,1028.255198
2024-04-10T07:25:18.060Z,1028.295068
2024-04-10T07:30:17.022Z,1028.314929
2024-04-10T07:35:16.269Z,1028.355324
2024-04-10T07:40:16.337Z,1028.316133
2024-04-10T07:45:17.167Z,1028.296806
2024-04-10T07:50:17.015Z,1028.296840
2024-04-10T07:55:16.134Z,1028.296087
2024-04-10T08:00:17.181Z,1028.335553
2024-04-10T08:05:17.096Z,1028.355585
2024-04-10T08:10:16.599Z,1028.296194
2024-04-10T08:15:17.107Z,1028.297157
2024-04-10T08:20:17.409Z,1028.336453
2024-04-10T08:25:17.187Z,1028.356064
2024-04-10T08:30:16.304Z,1028.377185
2024-04-10T08:35:16.667Z,1028.377028
2024-04-10T08:40:16.583Z,1028.477732
2024-04-10T08:45:18.039Z,1028.498179
2024-04-10T08:50:16.844Z,1028.338013
2024-04-10T08:55:16.609Z,1028.358150
2024-04-10T09:00:16.984Z,1028.318268
2024-04-10T09:05:18.308Z,1028.358397
2024-04-10T09:10:17.122Z,1028.358746
2024-04-10T09:15:16.426Z,1028.338984
2024-04-10T09:20:16.896Z,1028.298870
2024-04-10T09:25:16.720Z,1028.339129
2024-04-10T09:30:16.782Z,1028.259955
2024-04-10T09:35:16.747Z,1028.220664
2024-04-10T09:40:16.592Z,1028.202116
2024-04-10T09:45:16.589Z,1028.182616
2024-04-10T09:50:16.438Z,1028.202562
2024-04-10T09:55:16.894Z,1028.202109
2024-04-10T10:00:16.760Z,1028.301714
2024-04-10T10:05:16.504Z,1028.341450
2024-04-10T10:10:16.825Z,1028.381473
2024-04-10T10:15:16.257Z,1028.461784
2024-04-10T10:20:16.482Z,1028.442416
2024-04-10T10:25:16.311Z,1028.442886
2024-04-10T10:30:16.534Z,1028.522987
2024-04-10T10:35:19.744Z,1028.503391
2024-04-10T10:40:16.875Z,1028.543224
2024-04-10T10:45:16.485Z,1028.483553
2024-04-10T10:50:16.634Z,1028.504341
2024-04-10T10:55:16.392Z,1028.464571
2024-04-10T11:00:16.504Z,1028.445390
2024-04-10T11:05:22.030Z,1028.465395
2024-04-10T11:10:16.524Z,1028.405162
2024-04-10T11:15:17.448Z,1028.324842
2024-04-10T11:20:16.656Z,1028.265307
2024-04-10T11:25:16.969Z,1028.304705
2024-04-10T11:30:22.391Z,1028.245366
2024-04-10T11:35:16.297Z,1028.225941
2024-04-10T11:40:16.412Z,1028.066436
2024-04-10T11:45:16.926Z,1028.046006
2024-04-10T11:50:17.238Z,1028.046034
2024-04-10T11:55:16.715Z,1027.865633
2024-04-10T12:00:17.210Z,1027.945817
2024-04-10T12:05:16.782Z,1027.946239
2024-04-10T12:10:16.694Z,1027.925783
2024-04-10T12:15:16.418Z,1027.886946
2024-04-10T12:20:16.931Z,1027.887187
2024-04-10T12:25:17.848Z,1027.907496
2024-04-10T12:30:16.863Z,1027.906422
2024-04-10T12:35:17.074Z,1027.865075
2024-04-10T12:40:16.538Z,1027.864331
2024-04-10T12:45:16.996Z,1027.863822
2024-04-10T12:50:16.859Z,1027.883818
2024-04-10T12:55:16.267Z,1027.903758
2024-04-10T13:00:16.434Z,1027.964154
2024-04-10T13:05:17.718Z,1028.004628
2024-04-10T13:10:16.365Z,1027.984316
2024-04-10T13:15:17.780Z,1027.923673
2024-04-10T13:20:16.871Z,1027.863090
2024-04-10T13:25:16.374Z,1027.943183
2024-04-10T13:30:17.199Z,1027.943466
2024-04-10T13:35:17.112Z,1027.902985
2024-04-10T13:40:16.846Z,1027.903014
2024-04-10T13:45:17.334Z,1027.843103
2024-04-10T13:50:17.079Z,1027.783026
2024-04-10T13:55:16.870Z,1027.744261
2024-04-10T14:00:16.974Z,1027.864230
2024-04-10T14:05:16.350Z,1027.962958
2024-04-10T14:10:16.540Z,1028.001994
2024-04-10T14:15:17.278Z,1028.001690
2024-04-10T14:20:16.568Z,1027.921104
2024-04-10T14:25:16.682Z,1027.980161
2024-04-10T14:30:16.241Z,1028.020540
2024-04-10T14:35:16.593Z,1028.081575
2024-04-10T14:40:17.197Z,1028.142306
2024-04-10T14:45:16.360Z,1028.122004
2024-04-10T14:50:16.275Z,1028.080619
2024-04-10T14:55:16.428Z,1028.039169
2024-04-10T15:00:16.949Z,1027.980143
2024-04-10T15:05:17.550Z,1027.920277
2024-04-10T15:10:16.403Z,1027.858708
2024-04-10T15:15:16.760Z,1027.818501
2024-04-10T15:20:16.852Z,1027.897790
2024-04-10T15:25:16.637Z,1027.755519
2024-04-10T15:30:17.138Z,1027.774825
2024-04-10T15:35:16.341Z,1027.794772
2024-04-10T15:40:16.988Z,1027.813120
2024-04-10T15:45:16.620Z,1027.775463
2024-04-10T15:50:17.183Z,1027.734502
2024-04-10T15:55:16.671Z,1027.670439
2024-04-10T16:00:16.675Z,1027.649924
2024-04-10T16:05:16.513Z,1027.671549
2024-04-10T16:10:17.100Z,1027.651712
2024-04-10T16:15:16.514Z,1027.651911
2024-04-10T16:20:16.635Z,1027.710412
2024-04-10T16:25:16.340Z,1027.694606
2024-04-10T16:30:17.064Z,1027.715016
2024-04-10T16:35:16.477Z,1027.775041
2024-04-10T16:40:16.276Z,1027.855247
2024-04-10T16:45:16.714Z,1027.874060
2024-04-10T16:50:16.806Z,1028.016344
2024-04-10T16:55:16.520Z,1028.036372
2024-04-10T17:00:17.035Z,1028.035946
2024-04-10T17:05:17.118Z,1027.955326
2024-04-10T17:10:16.701Z,1027.894295
2024-04-10T17:15:16.860Z,1027.873619
2024-04-10T17:20:16.829Z,1027.932765
2024-04-10T17:25:17.354Z,1027.854809
2024-04-10T17:30:17.325Z,1027.813410
2024-04-10T17:35:16.556Z,1027.853470
2024-04-10T17:40:16.751Z,1027.811344
2024-04-10T17:45:17.678Z,1027.771960
2024-04-10T17:50:17.746Z,1027.710533
2024-04-10T17:55:17.714Z,1027.649558
2024-04-10T18:00:16.618Z,1027.669023
2024-04-10T18:05:16.592Z,1027.609010
2024-04-10T18:10:16.656Z,1027.547231
2024-04-10T18:15:16.883Z,1027.507741
2024-04-10T18:20:16.465Z,1027.489560
2024-04-10T18:25:16.554Z,1027.468618
2024-04-10T18:30:16.611Z,1027.467806
2024-04-10T18:35:17.160Z,1027.426520
2024-04-10T18:40:17.471Z,1027.388743
2024-04-10T18:45:18.968Z,1027.347260
2024-04-10T18:50:16.918Z,1027.288509
2024-04-10T18:55:16.594Z,1027.206225
2024-04-10T19:00:16.331Z,1027.207884
2024-04-10T19:05:16.833Z,1027.226840
2024-04-10T19:10:16.127Z,1027.226686
2024-04-10T19:15:16.477Z,1027.146004
2024-04-10T19:20:16.739Z,1027.064890
2024-04-10T19:25:16.683Z,1026.985863
2024-04-10T19:30:17.028Z,1026.987787
2024-04-10T19:35:16.773Z,1026.867489
2024-04-10T19:40:16.490Z,1026.785495
2024-04-10T19:45:17.498Z,1026.765381
2024-04-10T19:50:17.054Z,1026.726120
2024-04-10T19:55:16.959Z,1026.705186
2024-04-10T20:00:16.621Z,1026.684225
2024-04-10T20:05:17.055Z,1026.643244
2024-04-10T20:10:16.794Z,1026.625094
2024-04-10T20:15:16.305Z,1026.563796
2024-04-10T20:20:16.564Z,1026.484044
2024-04-10T20:25:16.376Z,1026.462528
2024-04-10T20:30:16.526Z,1026.401867
2024-04-10T20:35:17.354Z,1026.462573
2024-04-10T20:40:16.506Z,1026.322264
2024-04-10T20:45:16.335Z,1026.280644
2024-04-10T20:50:16.333Z,1026.261728
2024-04-10T20:55:18.306Z,1026.201115
2024-04-10T21:00:16.743Z,1026.139606
2024-04-10T21:05:16.435Z,1026.118561
2024-04-10T21:10:16.574Z,1026.100326
2024-04-10T21:15:16.789Z,1026.041479
2024-04-10T21:20:16.439Z,1026.041250
2024-04-10T21:25:17.164Z,1026.040186
2024-04-10T21:30:16.488Z,1025.959546
2024-04-10T21:35:16.433Z,1025.819330
2024-04-10T21:40:16.642Z,1025.680049
2024-04-10T21:45:16.686Z,1025.639923
2024-04-10T21:50:16.295Z,1025.579274
2024-04-10T21:55:16.223Z,1025.519238
2024-04-10T22:00:37.045Z,1025.458789
2024-04-10T22:05:17.513Z,1025.419974
2024-04-10T22:10:16.255Z,1025.419676
2024-04-10T22:15:16.401Z,1025.359836
2024-04-10T22:20:16.796Z,1025.278332
2024-04-10T22:25:16.614Z,1025.218598
2024-04-10T22:30:16.431Z,1025.157564
2024-04-10T22:35:18.491Z,1025.098335
2024-04-10T22:40:16.346Z,1025.056044
2024-04-10T22:45:16.420Z,1024.918748
2024-04-10T22:50:17.139Z,1024.899311
2024-04-10T22:55:16.521Z,1024.919601
2024-04-10T23:00:16.273Z,1024.938555
2024-04-10T23:05:31.367Z,1024.919023
2024-04-10T23:10:16.322Z,1024.859388
2024-04-10T23:15:17.572Z,1024.799513
2024-04-10T23:20:16.899Z,1024.800319
2024-04-10T23:25:18.129Z,1024.779139
2024-04-10T23:30:16.416Z,1024.760176
2024-04-10T23:35:16.358Z,1024.640303
2024-04-10T23:40:17.545Z,1024.680815
2024-04-10T23:45:16.236Z,1024.680706
2024-04-10T23:50:17.142Z,1024.660291
2024-04-10T23:55:17.881Z,1024.580208
